createdAt,value
2023-06-15T00:02:06.522Z,16.53
2023-06-15T00:07:08.601Z,16.59
2023-06-15T00:12:10.582Z,16.61
2023-06-15T00:17:13.078Z,16.62
2023-06-15T00:22:16.219Z,16.63
2023-06-15T00:27:17.862Z,16.45
2023-06-15T00:32:20.598Z,16.55
2023-06-15T00:37:22.274Z,16.37
2023-06-15T00:42:23.899Z,16.40
2023-06-15T00:47:25.697Z,16.47
2023-06-15T00:52:27.489Z,16.48
2023-06-15T00:57:29.284Z,16.48
2023-06-15T01:02:30.942Z,16.50
2023-06-15T01:07:36.297Z,16.26
2023-06-15T01:12:41.641Z,16.32
2023-06-15T01:17:47.549Z,16.30
2023-06-15T01:23:06.210Z,16.40
2023-06-15T01:28:10.633Z,16.35
2023-06-15T01:33:12.796Z,16.22
2023-06-15T01:38:15.292Z,16.28
2023-06-15T01:43:21.849Z,16.12
2023-06-15T01:48:24.853Z,16.21
2023-06-15T01:53:26.672Z,16.17
2023-06-15T01:58:28.854Z,16.31
2023-06-15T02:03:30.508Z,16.26
2023-06-15T02:08:32.429Z,16.20
2023-06-15T02:13:34.105Z,16.15
2023-06-15T02:18:38.403Z,16.11
2023-06-15T02:23:40.222Z,16.13
2023-06-15T02:28:42.333Z,15.94
2023-06-15T02:33:44.195Z,15.84
2023-06-15T02:38:46.978Z,15.91
2023-06-15T02:43:48.702Z,15.99
2023-06-15T02:48:53.448Z,15.91
2023-06-15T02:53:57.251Z,15.84
2023-06-15T02:58:59.316Z,15.66
2023-06-15T03:04:18.340Z,15.91
2023-06-15T03:09:22.603Z,15.95
2023-06-15T03:14:24.296Z,15.94
2023-06-15T03:19:26.497Z,15.80
2023-06-15T03:24:28.337Z,15.88
2023-06-15T03:29:32.684Z,15.60
2023-06-15T03:34:36.487Z,15.67
2023-06-15T03:39:38.318Z,15.65
2023-06-15T03:44:40.717Z,15.55
2023-06-15T03:49:42.370Z,15.71
2023-06-15T03:54:44.275Z,15.77
2023-06-15T03:59:46.651Z,15.61
2023-06-15T04:04:48.450Z,15.71
2023-06-15T04:09:50.951Z,15.79
2023-06-15T04:14:53.061Z,15.63
2023-06-15T04:19:55.878Z,15.66
2023-06-15T04:24:58.638Z,15.60
2023-06-15T04:30:00.894Z,15.72
2023-06-15T04:35:05.102Z,15.85
2023-06-15T04:40:10.788Z,15.92
2023-06-15T04:45:14.411Z,15.99
2023-06-15T04:50:16.364Z,16.05
2023-06-15T04:55:18.459Z,15.90
2023-06-15T05:00:21.210Z,15.98
2023-06-15T05:05:28.012Z,15.94
2023-06-15T05:10:44.568Z,16.02
2023-06-15T05:15:48.308Z,16.06
2023-06-15T05:20:52.227Z,16.05
2023-06-15T05:25:54.304Z,16.17
2023-06-15T05:30:56.926Z,16.07
2023-06-15T05:35:58.981Z,16.29
2023-06-15T05:41:00.817Z,16.30
2023-06-15T05:46:02.539Z,16.36
2023-06-15T05:51:04.350Z,16.28
2023-06-15T05:56:07.356Z,16.31
2023-06-15T06:01:09.304Z,16.31
2023-06-15T06:06:11.008Z,16.39
2023-06-15T06:11:12.703Z,16.38
2023-06-15T06:16:19.552Z,16.41
2023-06-15T06:21:21.327Z,16.44
2023-06-15T06:26:22.956Z,16.55
2023-06-15T06:31:24.709Z,16.55
2023-06-15T06:36:27.111Z,16.54
2023-06-15T06:41:28.780Z,16.69
2023-06-15T06:46:30.451Z,16.55
2023-06-15T06:51:32.237Z,16.57
2023-06-15T06:56:33.887Z,16.48
2023-06-15T07:01:35.688Z,16.76
2023-06-15T07:06:37.410Z,16.53
2023-06-15T07:11:39.111Z,16.70
2023-06-15T07:16:40.726Z,17.10
2023-06-15T07:21:42.363Z,17.27
2023-06-15T07:26:44.027Z,17.38
2023-06-15T07:31:49.908Z,17.54
2023-06-15T07:36:51.825Z,17.60
2023-06-15T07:41:54.866Z,17.54
2023-06-15T07:46:56.544Z,17.98
2023-06-15T07:52:07.843Z,18.20
2023-06-15T07:57:12.017Z,18.53
2023-06-15T08:02:13.713Z,18.47
2023-06-15T08:07:16.397Z,18.67
2023-06-15T08:12:18.934Z,18.75
2023-06-15T08:17:20.593Z,18.59
2023-06-15T08:22:22.296Z,18.69
2023-06-15T08:27:23.943Z,18.80
2023-06-15T08:32:25.702Z,18.80
2023-06-15T08:37:27.673Z,18.78
2023-06-15T08:42:29.628Z,18.72
2023-06-15T08:47:33.463Z,18.85
2023-06-15T08:52:35.985Z,19.06
2023-06-15T08:57:37.658Z,19.17
2023-06-15T09:02:44.348Z,19.29
2023-06-15T09:07:46.420Z,19.50
2023-06-15T09:12:49.153Z,19.74
2023-06-15T09:17:55.036Z,19.79
2023-06-15T09:23:03.536Z,20.12
2023-06-15T09:28:07.386Z,20.12
2023-06-15T09:33:19.700Z,20.17
2023-06-15T09:38:21.305Z,20.43
2023-06-15T09:43:23.281Z,20.30
2023-06-15T09:48:24.918Z,20.31
2023-06-15T09:53:29.828Z,20.42
2023-06-15T09:58:31.899Z,20.21
2023-06-15T10:03:34.249Z,20.45
2023-06-15T10:08:40.071Z,20.47
2023-06-15T10:13:53.711Z,20.58
2023-06-15T10:19:02.747Z,20.88
2023-06-15T10:24:13.740Z,20.85
2023-06-15T10:29:48.697Z,20.77
2023-06-15T10:34:56.510Z,20.89
2023-06-15T10:40:06.718Z,20.95
2023-06-15T10:45:29.086Z,20.93
2023-06-15T10:50:39.729Z,21.05
2023-06-15T10:55:41.375Z,21.12
2023-06-15T11:00:45.117Z,21.22
2023-06-15T11:05:46.757Z,21.22
2023-06-15T11:10:48.495Z,21.43
2023-06-15T11:16:06.230Z,21.49
2023-06-15T11:21:07.888Z,21.57
2023-06-15T11:26:15.148Z,21.71
2023-06-15T11:31:17.981Z,21.59
2023-06-15T11:36:19.626Z,21.02
2023-06-15T11:41:21.388Z,19.95
2023-06-15T11:46:24.567Z,19.49
2023-06-15T11:51:26.551Z,19.87
2023-06-15T11:56:28.923Z,19.83
2023-06-15T12:01:32.895Z,19.45
2023-06-15T12:06:34.950Z,19.10
2023-06-15T12:11:37.087Z,19.44
2023-06-15T12:16:39.941Z,19.52
2023-06-15T12:21:41.799Z,19.52
2023-06-15T12:26:50.558Z,19.43
2023-06-15T12:31:54.662Z,19.75
2023-06-15T12:36:56.745Z,19.79
2023-06-15T12:42:00.073Z,20.04
2023-06-15T12:47:01.692Z,19.94
2023-06-15T12:52:03.463Z,20.10
2023-06-15T12:57:05.435Z,20.21
2023-06-15T13:02:07.177Z,20.28
2023-06-15T13:07:09.739Z,20.50
2023-06-15T13:12:12.660Z,20.69
2023-06-15T13:17:14.360Z,20.85
2023-06-15T13:22:16.045Z,20.90
2023-06-15T13:27:20.612Z,20.96
2023-06-15T13:32:22.709Z,21.13
2023-06-15T13:37:24.346Z,21.14
2023-06-15T13:42:26.411Z,21.15
2023-06-15T13:47:28.017Z,21.10
2023-06-15T13:52:29.675Z,21.32
2023-06-15T13:57:31.334Z,21.52
2023-06-15T14:02:33.065Z,21.67
2023-06-15T14:07:37.636Z,21.66
2023-06-15T14:12:39.341Z,21.50
2023-06-15T14:17:41.534Z,21.46
2023-06-15T14:22:43.284Z,21.32
2023-06-15T14:27:48.006Z,21.40
2023-06-15T14:32:49.930Z,21.73
2023-06-15T14:37:52.364Z,21.64
2023-06-15T14:42:54.102Z,21.65
2023-06-15T14:47:55.908Z,21.50
2023-06-15T14:52:58.445Z,21.70
2023-06-15T14:58:00.062Z,21.83
2023-06-15T15:03:01.805Z,21.92
2023-06-15T15:08:04.169Z,21.94
2023-06-15T15:13:05.819Z,22.06
2023-06-15T15:18:07.471Z,21.98
2023-06-15T15:23:09.167Z,22.07
2023-06-15T15:28:10.760Z,22.21
2023-06-15T15:33:12.394Z,22.20
2023-06-15T15:38:14.054Z,22.19
2023-06-15T15:43:19.277Z,22.14
2023-06-15T15:48:20.894Z,22.19
2023-06-15T15:53:23.667Z,22.20
2023-06-15T15:58:25.313Z,21.99
2023-06-15T16:03:27.117Z,22.02
2023-06-15T16:08:28.841Z,22.01
2023-06-15T16:13:30.892Z,21.99
2023-06-15T16:18:32.602Z,22.14
2023-06-15T16:23:34.296Z,22.05
2023-06-15T16:28:36.178Z,21.96
2023-06-15T16:33:37.787Z,21.77
2023-06-15T16:38:39.433Z,21.83
2023-06-15T16:43:42.793Z,21.78
2023-06-15T16:48:44.549Z,21.69
2023-06-15T16:53:46.230Z,21.59
2023-06-15T16:58:47.875Z,21.46
2023-06-15T17:03:49.603Z,21.37
2023-06-15T17:08:51.416Z,21.49
2023-06-15T17:13:53.480Z,21.39
2023-06-15T17:18:55.467Z,21.25
2023-06-15T17:23:57.138Z,21.21
2023-06-15T17:28:59.482Z,21.26
2023-06-15T17:34:01.446Z,21.19
2023-06-15T17:39:03.515Z,21.14
2023-06-15T17:44:05.413Z,21.15
2023-06-15T17:49:07.934Z,21.12
2023-06-15T17:54:09.562Z,21.10
2023-06-15T17:59:11.265Z,21.09
2023-06-15T18:04:12.911Z,20.97
2023-06-15T18:09:16.399Z,20.91
2023-06-15T18:14:18.227Z,20.90
2023-06-15T18:19:19.845Z,20.81
2023-06-15T18:24:21.762Z,20.74
2023-06-15T18:29:23.517Z,20.75
2023-06-15T18:34:25.356Z,20.71
2023-06-15T18:39:27.093Z,20.53
2023-06-15T18:44:28.717Z,20.59
2023-06-15T18:49:30.715Z,20.53
2023-06-15T18:54:32.722Z,20.49
2023-06-15T18:59:34.704Z,20.48
2023-06-15T19:04:36.595Z,20.44
2023-06-15T19:09:40.625Z,20.39
2023-06-15T19:14:42.765Z,20.09
2023-06-15T19:19:44.535Z,20.02
2023-06-15T19:24:46.150Z,20.01
2023-06-15T19:29:47.797Z,20.07
2023-06-15T19:34:49.438Z,19.76
2023-06-15T19:39:51.291Z,19.75
2023-06-15T19:44:52.945Z,19.87
2023-06-15T19:49:54.609Z,19.76
2023-06-15T19:54:56.213Z,19.82
2023-06-15T19:59:57.991Z,19.55
2023-06-15T20:04:59.659Z,19.56
2023-06-15T20:10:01.968Z,19.62
2023-06-15T20:15:03.984Z,19.51
2023-06-15T20:20:06.806Z,19.41
2023-06-15T20:25:09.282Z,19.38
2023-06-15T20:30:11.489Z,19.19
2023-06-15T20:35:13.216Z,19.17
2023-06-15T20:40:15.087Z,18.96
2023-06-15T20:45:16.797Z,19.10
2023-06-15T20:50:18.744Z,18.96
2023-06-15T20:55:20.883Z,18.90
2023-06-15T21:00:22.564Z,18.89
2023-06-15T21:05:24.783Z,18.95
2023-06-15T21:10:26.808Z,18.94
2023-06-15T21:15:28.425Z,18.92
2023-06-15T21:20:30.124Z,18.89
2023-06-15T21:25:31.744Z,18.78
2023-06-15T21:30:33.434Z,18.77
2023-06-15T21:35:35.076Z,18.47
2023-06-15T21:40:36.698Z,18.62
2023-06-15T21:45:38.274Z,18.32
2023-06-15T21:50:39.894Z,18.43
2023-06-15T21:55:41.525Z,18.44
2023-06-15T22:00:43.976Z,18.35
2023-06-15T22:05:46.512Z,18.22
2023-06-15T22:10:48.338Z,18.17
2023-06-15T22:15:50.282Z,18.03
2023-06-15T22:20:54.093Z,18.14
2023-06-15T22:25:56.783Z,18.16
2023-06-15T22:30:58.717Z,18.20
2023-06-15T22:36:00.418Z,17.99
2023-06-15T22:41:02.010Z,17.81
2023-06-15T22:46:04.148Z,17.74
2023-06-15T22:51:05.777Z,17.81
2023-06-15T22:56:07.524Z,17.73
2023-06-15T23:01:09.243Z,17.70
2023-06-15T23:06:10.857Z,17.56
2023-06-15T23:11:14.204Z,17.52
2023-06-15T23:16:16.753Z,17.34
2023-06-15T23:21:22.768Z,17.38
2023-06-15T23:26:25.431Z,17.24
2023-06-15T23:31:27.326Z,17.22
2023-06-15T23:36:28.985Z,17.15
2023-06-15T23:41:30.609Z,17.13
2023-06-15T23:46:32.348Z,17.04
2023-06-15T23:51:34.381Z,17.08
2023-06-15T23:56:36.102Z,17.08
